createdAt,value
2023-04-16T00:02:29.785Z,5.25
2023-04-16T00:07:31.703Z,5.55
2023-04-16T00:12:33.436Z,5.80
2023-04-16T00:17:35.084Z,5.70
2023-04-16T00:22:36.744Z,5.97
2023-04-16T00:27:38.262Z,5.93
2023-04-16T00:32:39.842Z,4.40
2023-04-16T00:37:41.693Z,6.40
2023-04-16T00:42:43.831Z,5.20
2023-04-16T00:47:45.975Z,4.72
2023-04-16T00:52:48.683Z,5.13
2023-04-16T00:57:50.614Z,5.00
2023-04-16T01:02:53.852Z,4.88
2023-04-16T01:08:00.746Z,5.72
2023-04-16T01:13:02.267Z,5.80
2023-04-16T01:18:13.794Z,4.82
2023-04-16T01:23:16.312Z,4.72
2023-04-16T01:28:18.449Z,4.80
2023-04-16T01:33:21.430Z,5.35
2023-04-16T01:38:23.138Z,6.10
2023-04-16T01:43:25.220Z,5.03
2023-04-16T01:48:26.740Z,4.90
2023-04-16T01:53:28.567Z,4.78
2023-04-16T01:58:31.443Z,5.50
2023-04-16T02:03:33.380Z,4.93
2023-04-16T02:08:35.575Z,5.18
2023-04-16T02:13:37.310Z,5.88
2023-04-16T02:18:39.399Z,5.03
2023-04-16T02:23:42.800Z,4.95
2023-04-16T02:28:44.712Z,4.72
2023-04-16T02:33:47.796Z,5.43
2023-04-16T02:38:50.708Z,5.70
2023-04-16T02:43:53.056Z,4.72
2023-04-16T02:48:54.699Z,5.05
2023-04-16T02:53:56.796Z,5.30
2023-04-16T02:58:58.380Z,5.88
2023-04-16T03:04:00.201Z,4.85
2023-04-16T03:09:01.900Z,5.15
2023-04-16T03:14:03.589Z,6.05
2023-04-16T03:19:05.598Z,6.00
2023-04-16T03:24:07.824Z,4.03
2023-04-16T03:29:09.592Z,5.28
2023-04-16T03:34:11.567Z,4.00
2023-04-16T03:39:15.061Z,4.65
2023-04-16T03:44:16.813Z,4.53
2023-04-16T03:49:22.204Z,4.72
2023-04-16T03:54:24.501Z,4.80
2023-04-16T03:59:35.535Z,5.10
2023-04-16T04:04:37.733Z,5.47
2023-04-16T04:09:40.185Z,5.18
2023-04-16T04:14:43.548Z,5.40
2023-04-16T04:19:59.971Z,6.60
2023-04-16T04:25:02.854Z,4.93
2023-04-16T04:30:07.905Z,5.38
2023-04-16T04:35:10.135Z,5.30
2023-04-16T04:40:12.360Z,5.93
2023-04-16T04:45:14.262Z,5.57
2023-04-16T04:50:17.620Z,4.60
2023-04-16T04:55:21.761Z,4.35
2023-04-16T05:00:23.919Z,5.28
2023-04-16T05:05:29.255Z,4.65
2023-04-16T05:10:30.858Z,5.57
2023-04-16T05:15:32.895Z,5.65
2023-04-16T05:20:35.011Z,5.85
2023-04-16T05:25:36.809Z,4.60
2023-04-16T05:30:38.601Z,4.70
2023-04-16T05:35:40.576Z,5.28
2023-04-16T05:40:44.072Z,4.55
2023-04-16T05:45:45.903Z,5.32
2023-04-16T05:50:47.701Z,4.43
2023-04-16T05:55:49.346Z,5.00
2023-04-16T06:00:51.310Z,4.85
2023-04-16T06:05:53.277Z,4.85
2023-04-16T06:10:56.833Z,5.03
2023-04-16T06:15:58.807Z,4.25
2023-04-16T06:21:00.872Z,6.32
2023-04-16T06:26:02.422Z,4.97
2023-04-16T06:31:04.375Z,5.35
2023-04-16T06:36:06.032Z,4.88
2023-04-16T06:41:07.534Z,4.75
2023-04-16T06:46:09.214Z,5.85
2023-04-16T06:51:11.610Z,5.15
2023-04-16T06:56:13.499Z,5.25
2023-04-16T07:01:15.698Z,5.70
2023-04-16T07:06:17.324Z,4.85
2023-04-16T07:11:19.313Z,5.07
2023-04-16T07:16:21.330Z,5.03
2023-04-16T07:21:24.122Z,4.95
2023-04-16T07:26:26.163Z,5.53
2023-04-16T07:31:28.123Z,4.82
2023-04-16T07:36:30.469Z,6.07
2023-04-16T07:41:32.493Z,5.82
2023-04-16T07:46:45.567Z,5.10
2023-04-16T07:51:49.200Z,6.60
2023-04-16T07:56:51.078Z,5.97
2023-04-16T08:01:53.804Z,5.43
2023-04-16T08:06:55.822Z,5.72
2023-04-16T08:11:57.455Z,5.38
2023-04-16T08:16:58.961Z,5.72
2023-04-16T08:22:00.624Z,5.88
2023-04-16T08:27:11.528Z,4.85
2023-04-16T08:32:19.741Z,4.53
2023-04-16T08:37:21.237Z,4.70
2023-04-16T08:42:33.291Z,5.53
2023-04-16T08:47:38.698Z,5.45
2023-04-16T08:52:48.277Z,5.78
2023-04-16T08:57:57.701Z,5.38
2023-04-16T09:02:59.936Z,5.47
2023-04-16T09:08:02.134Z,4.30
2023-04-16T09:13:03.861Z,5.20
2023-04-16T09:18:05.501Z,4.80
2023-04-16T09:23:06.983Z,5.20
2023-04-16T09:28:09.504Z,5.47
2023-04-16T09:33:22.277Z,5.57
2023-04-16T09:38:26.475Z,4.95
2023-04-16T09:43:28.177Z,5.47
2023-04-16T09:48:34.001Z,4.43
2023-04-16T09:53:35.615Z,4.90
2023-04-16T09:58:38.236Z,4.60
2023-04-16T10:03:40.578Z,4.40
2023-04-16T10:08:49.994Z,4.82
2023-04-16T10:18:54.256Z,4.00
2023-04-16T10:23:56.031Z,4.38
2023-04-16T10:28:58.950Z,4.95
2023-04-16T10:34:01.666Z,3.80
2023-04-16T10:39:03.958Z,3.70
2023-04-16T10:44:09.827Z,3.55
2023-04-16T10:49:27.782Z,4.03
2023-04-16T10:54:31.615Z,3.70
2023-04-16T10:59:35.197Z,4.57
2023-04-16T11:04:40.407Z,4.10
2023-04-16T11:09:47.669Z,4.40
2023-04-16T11:14:54.292Z,4.10
2023-04-16T11:19:56.433Z,3.20
2023-04-16T11:24:57.945Z,3.97
2023-04-16T11:30:00.618Z,3.20
2023-04-16T11:35:04.486Z,3.65
2023-04-16T11:40:09.592Z,4.05
2023-04-16T11:45:12.285Z,3.80
2023-04-16T11:50:21.336Z,2.83
2023-04-16T11:55:24.390Z,3.78
2023-04-16T12:00:35.836Z,4.18
2023-04-16T12:05:40.683Z,3.58
2023-04-16T12:10:55.583Z,3.47
2023-04-16T12:15:57.607Z,2.90
2023-04-16T12:20:59.066Z,3.40
2023-04-16T12:26:10.312Z,4.00
2023-04-16T12:31:12.564Z,3.63
2023-04-16T12:36:19.118Z,3.55
2023-04-16T12:41:21.959Z,3.13
2023-04-16T12:46:23.633Z,3.80
2023-04-16T12:51:26.781Z,3.42
2023-04-16T12:56:28.480Z,3.90
2023-04-16T13:01:30.692Z,3.10
2023-04-16T13:06:33.698Z,3.38
2023-04-16T13:11:35.623Z,3.65
2023-04-16T13:16:38.684Z,3.67
2023-04-16T13:21:40.478Z,4.00
2023-04-16T13:26:42.875Z,3.38
2023-04-16T13:31:44.544Z,3.42
2023-04-16T13:36:46.439Z,2.80
2023-04-16T13:41:48.978Z,3.47
2023-04-16T13:46:50.705Z,3.90
2023-04-16T13:51:52.356Z,3.67
2023-04-16T13:56:54.179Z,3.90
2023-04-16T14:01:55.756Z,3.90
2023-04-16T14:06:57.479Z,3.75
2023-04-16T14:11:59.216Z,4.07
2023-04-16T14:17:03.377Z,3.63
2023-04-16T14:22:05.038Z,3.60
2023-04-16T14:27:08.023Z,2.95
2023-04-16T14:32:09.678Z,2.88
2023-04-16T14:37:11.302Z,2.72
2023-04-16T14:42:12.863Z,3.35
2023-04-16T14:47:14.621Z,2.78
2023-04-16T14:52:17.067Z,3.70
2023-04-16T14:57:19.242Z,4.03
2023-04-16T15:02:21.366Z,4.07
2023-04-16T15:07:23.036Z,3.78
2023-04-16T15:12:24.833Z,3.40
2023-04-16T15:17:26.655Z,3.15
2023-04-16T15:22:28.238Z,3.22
2023-04-16T15:27:29.747Z,3.00
2023-04-16T15:32:31.453Z,3.25
2023-04-16T15:37:33.329Z,4.05
2023-04-16T15:42:36.262Z,3.83
2023-04-16T15:47:40.197Z,2.83
2023-04-16T15:52:43.219Z,3.85
2023-04-16T15:57:44.952Z,3.95
2023-04-16T16:02:47.483Z,3.80
2023-04-16T16:07:49.208Z,4.28
2023-04-16T16:12:50.782Z,4.20
2023-04-16T16:17:53.413Z,4.45
2023-04-16T16:22:56.392Z,5.05
2023-04-16T16:27:59.162Z,4.40
2023-04-16T16:33:00.768Z,4.60
2023-04-16T16:38:02.649Z,4.82
2023-04-16T16:43:05.570Z,4.07
2023-04-16T16:48:07.414Z,4.63
2023-04-16T16:53:09.932Z,4.20
2023-04-16T16:58:12.129Z,4.85
2023-04-16T17:03:14.103Z,4.18
2023-04-16T17:08:16.220Z,5.63
2023-04-16T17:13:23.300Z,5.80
2023-04-16T17:18:24.866Z,6.07
2023-04-16T17:23:26.405Z,5.88
2023-04-16T17:28:28.333Z,5.70
2023-04-16T17:33:31.438Z,6.18
2023-04-16T17:38:33.784Z,6.20
2023-04-16T17:43:35.435Z,6.82
2023-04-16T17:48:37.349Z,5.68
2023-04-16T17:53:38.988Z,6.45
2023-04-16T17:58:41.583Z,6.07
2023-04-16T18:03:44.509Z,6.53
2023-04-16T18:08:46.255Z,6.90
2023-04-16T18:13:47.861Z,6.40
2023-04-16T18:18:49.396Z,7.10
2023-04-16T18:23:50.932Z,6.07
2023-04-16T18:28:52.487Z,6.82
2023-04-16T18:33:58.109Z,6.93
2023-04-16T18:39:02.543Z,7.25
2023-04-16T18:44:04.470Z,6.88
2023-04-16T18:49:06.002Z,6.88
2023-04-16T18:54:07.615Z,6.28
2023-04-16T18:59:09.305Z,6.43
2023-04-16T19:04:11.065Z,6.68
2023-04-16T19:09:13.259Z,6.10
2023-04-16T19:14:15.540Z,5.60
2023-04-16T19:19:17.459Z,5.20
2023-04-16T19:24:19.813Z,5.20
2023-04-16T19:29:21.408Z,5.38
2023-04-16T19:34:22.938Z,5.43
2023-04-16T19:39:31.477Z,5.80
2023-04-16T19:44:33.163Z,6.30
2023-04-16T19:49:34.740Z,5.90
2023-04-16T19:54:37.566Z,5.32
2023-04-16T19:59:39.154Z,5.80
2023-04-16T20:04:40.640Z,6.05
2023-04-16T20:09:42.131Z,6.45
2023-04-16T20:14:43.858Z,6.07
2023-04-16T20:19:49.443Z,6.15
2023-04-16T20:24:54.859Z,6.05
2023-04-16T20:29:56.592Z,6.95
2023-04-16T20:34:58.287Z,7.38
2023-04-16T20:39:59.928Z,6.22
2023-04-16T20:45:01.710Z,7.03
2023-04-16T20:50:03.678Z,6.55
2023-04-16T20:55:05.744Z,8.50
2023-04-16T21:00:10.181Z,8.73
2023-04-16T21:05:14.485Z,7.25
2023-04-16T21:10:19.966Z,7.30
2023-04-16T21:15:21.623Z,7.82
2023-04-16T21:20:23.148Z,7.35
2023-04-16T21:25:24.946Z,8.52
2023-04-16T21:30:27.014Z,7.63
2023-04-16T21:35:31.512Z,7.18
2023-04-16T21:40:33.236Z,7.43
2023-04-16T21:45:34.713Z,7.60
2023-04-16T21:50:36.242Z,7.90
2023-04-16T21:55:40.490Z,7.68
2023-04-16T22:00:42.314Z,7.65
2023-04-16T22:05:44.933Z,6.47
2023-04-16T22:10:46.475Z,5.90
2023-04-16T22:15:48.077Z,6.10
2023-04-16T22:20:50.747Z,5.35
2023-04-16T22:25:54.756Z,6.15
2023-04-16T22:30:56.919Z,6.25
2023-04-16T22:35:59.785Z,5.90
2023-04-16T22:41:01.371Z,6.80
2023-04-16T22:46:06.880Z,5.60
2023-04-16T22:51:09.173Z,5.45
2023-04-16T22:56:10.778Z,5.45
2023-04-16T23:01:12.748Z,6.57
2023-04-16T23:06:14.313Z,5.85
2023-04-16T23:11:15.902Z,5.43
2023-04-16T23:16:17.595Z,5.78
2023-04-16T23:21:19.091Z,6.63
2023-04-16T23:26:20.663Z,5.35
2023-04-16T23:31:22.367Z,5.60
2023-04-16T23:36:24.004Z,5.72
2023-04-16T23:41:25.584Z,5.57
2023-04-16T23:46:27.218Z,5.40
2023-04-16T23:51:28.705Z,5.47
2023-04-16T23:56:30.313Z,5.18
